AirNav   Pilot Hours Calculator
 
 1116 users online  

45CN Hermitage Airport
Groveland, California, USA

GOING TO GROVELAND?


FAA INFORMATION EFFECTIVE 02 JANUARY 2020

Location

FAA Identifier: 45CN
Lat/Long: 37-52-48.7340N 120-11-36.6770W
37-52.812233N 120-11.611283W
37.8802039,-120.1935214
(estimated)
Elevation: 2700 ft. / 823 m (estimated)
Variation: 16E (1985)
From city: 3 miles NE of GROVELAND, CA
Time zone: UTC -8 (UTC -7 during Daylight Saving Time)
Zip code: 95321

Airport Operations

Airport use: Private use. Permission required prior to landing
Activation date: 07/1962
Control tower: no
ARTCC: OAKLAND CENTER
FSS: RANCHO MURIETA FLIGHT SERVICE STATION
Attendance: UNATNDD
Wind indicator: no
Segmented circle: no

Airport Communications

WX AWOS-3 at O22 (14 nm NW): 124.65 (209-536-9384)

Nearby radio navigation aids

VOR radial/distance  VOR name  Freq  Var
MODr050/39.3MODESTO VOR/DME114.6017E

Airport Services

Airframe service: NONE
Powerplant service: NONE
Bottled oxygen: NONE
Bulk oxygen: NONE

Runway Information

Runway 9/27

Dimensions: 2700 x 60 ft. / 823 x 18 m
Surface: dirt/turf
RUNWAY 9  RUNWAY 27
Traffic pattern: leftleft
Obstructions: treestrees

Airport Ownership and Management from official FAA records

Ownership: Privately-owned
Owner: KENNETH L. WAGNER
24224 BROAD STREET
CARSON, CA 90745
Phone (310) 847-4813
Manager: KENNETH L. WAGNER
24224 BROAD STREET
CARSON, CA 90745
Phone (310) 847-4813

Additional Remarks

A30 MTN DEPARTURE END OF RWY 9.
FOR CD CTC OAKLAND ARTCC AT 510-745-3380.

Instrument Procedures

There are no published instrument procedures at 45CN.

Some nearby airports with instrument procedures:

E45 - Pine Mountain Lake Airport (1 nm SE)
O22 - Columbia Airport (14 nm NW)
KMPI - Mariposa-Yosemite Airport (23 nm S)
KCPU - Calaveras County Airport - Maury Rasmussen Field (27 nm NW)
O27 - Oakdale Airport (30 nm W)
 
Loc | Ops | Rwys | IFR | FBO | Links
Com | Nav | Svcs | Stats | Notes
Area around 45CN (Hermitage Airport)
 
Road maps at: MapQuest Bing Google
 
Aerial photo
No photo
 
Sectional chart

 
Airport distance calculator
Flying to Hermitage Airport? Find the distance to fly.

From to 45CN

Sunrise and sunset
Times for 29-Jan-2020
 Local
(UTC-8)
 Zulu
(UTC)
Morning civil twilight06:4114:41
Sunrise07:0815:08
Sunset17:2001:20
Evening civil twilight17:4701:47

Current date and time
Zulu (UTC)  29-Jan-2020 12:47:54
Local (UTC-8)  29-Jan-2020 04:47:54
 
METAR
KO22 
14nm NW 
291235Z AUTO 00000KT 10SM CLR 01/01 A3021 RMK A01
KCPU 
27nm NW 
291235Z AUTO 33007KT 10SM CLR 03/02 A3022 RMK AO2 T00340021
TAF
KMER 
35nm SW 
291136Z 2912/3012 33008KT P6SM FEW050 SCT200 FM300600 00000KT 6SM HZ BKN250 FM300900 VRB03KT 4SM HZ BR BKN250 AMD NOT SKED
KMCE 
39nm S 
291136Z 2912/3012 33008KT P6SM FEW050 SCT200 FM300600 00000KT 6SM HZ BKN250 FM300900 VRB03KT 4SM HZ BR BKN250
KMOD 
39nm SW 
291222Z 2912/3012 31009KT 4SM BR OVC006 TEMPO 2912/2915 1/2SM FG OVC002 FM291600 32012KT P6SM SCT250 FM300000 32008KT P6SM SCT250
NOTAMs
Click for the latest NOTAMs
NOTAMs are issued by the DoD/FAA and will open in a separate window not controlled by AirNav.

 

 
 

Would you like to see your business listed on this page?

 If your business provides an interesting product or service to pilots, flight crews, aircraft, or users of the Hermitage Airport, you should consider listing it here.  To start the listing process, click on the button below
 
Add a business
 

Other Pages about Hermitage Airport

Update a link
 
Copyright © AirNav, LLC. All rights reserved. Privacy Policy  Contact